Página principal
METAR-TAF:

METAR-TAF

Aeroportos :

Aeroporto Internacional de Ürümqi Diwopu

Ürümqi, China

latitude: 43-54N, longitude: 087-28E, altura: 654 m

Observação actual do tempo

O boletim foi feito há 16 minutos, às 12:30 UTC
Vento 6 kt de norte, variando entre noroeste e norte
Temperatura 28°C
Humidade 25%
Pressão 1007 hPa
Visibilidade 10 km ou mais
sem nuvens abaixo de 1500 metros e sem cumulonimbus

METAR: ZWWW 201230Z 35003MPS 310V010 CAVOK 28/06 Q1007 NOSIG

Hora: 18:46 (12:46 UTC)

Previsão

O boletim foi feito há 3 horas e 40 minutos, às 09:06 UTC
Previsão válida de 20 às 12 UTC a 21 às 12 UTC
Vento 8 kt de norte
Visibilidade 10 km ou mais
sem nuvens abaixo de 1500 metros e sem cumulonimbus
Tornando-se
de 20 às 13 UTC a 20 às 14 UTC
Vento 8 kt de sul
Tornando-se
de 21 às 02 UTC a 21 às 03 UTC
Vento 8 kt de norte

TAF: ZWWW 200906Z 2012/2112 36004MPS CAVOK TX32/2109Z TN22/2023Z BECMG 2013/2014 18004MPS BECMG 2102/2103 36004MPS

Observações e previsões do tempo de mais de 4000 aeroportos (mensagens METAR e TAF).

As estações disponíveis são os pontos amarelos e vermelhos sobre o mapa.

Mova o rato sobre o mapa para ver o nome da estação.

Depois clique no ponto para visualizar as observações e previsões meteorológicas.

Para alterar o mapa : clique nos botões verdes com uma cruz preta para aumentar o zoom; no botão verde com uma pitada de zoom; ou nas setas verdes para mapas adjacentes.


METAR-TAF: